sensor_id;sensor_type;location;lat;lon;timestamp;temperature;humidity
58993;DHT22;44782;0.000;0.000;2022-08-24T00:01:41;25.20;56.30
58993;DHT22;44782;0.000;0.000;2022-08-24T00:03:57;25.20;56.30
58993;DHT22;44782;0.000;0.000;2022-08-24T00:06:18;25.20;56.30
58993;DHT22;44782;0.000;0.000;2022-08-24T00:08:34;25.20;56.30
58993;DHT22;44782;0.000;0.000;2022-08-24T00:10:50;25.20;56.30
58993;DHT22;44782;0.000;0.000;2022-08-24T00:13:05;25.20;56.30
58993;DHT22;44782;0.000;0.000;2022-08-24T00:15:21;25.20;56.30
58993;DHT22;44782;0.000;0.000;2022-08-24T00:17:37;25.20;56.30
58993;DHT22;44782;0.000;0.000;2022-08-24T00:19:53;25.20;56.40
58993;DHT22;44782;0.000;0.000;2022-08-24T00:22:09;25.20;56.30
58993;DHT22;44782;0.000;0.000;2022-08-24T00:24:25;25.10;56.30
58993;DHT22;44782;0.000;0.000;2022-08-24T00:26:41;25.10;56.30
58993;DHT22;44782;0.000;0.000;2022-08-24T00:28:57;25.10;56.30
58993;DHT22;44782;0.000;0.000;2022-08-24T00:31:13;25.10;56.30
58993;DHT22;44782;0.000;0.000;2022-08-24T00:33:29;25.10;56.30
58993;DHT22;44782;0.000;0.000;2022-08-24T00:35:45;25.10;56.30
58993;DHT22;44782;0.000;0.000;2022-08-24T00:38:01;25.10;56.40
58993;DHT22;44782;0.000;0.000;2022-08-24T00:40:30;25.10;56.40
58993;DHT22;44782;0.000;0.000;2022-08-24T00:42:48;25.10;57.00
58993;DHT22;44782;0.000;0.000;2022-08-24T00:45:07;25.10;56.30
58993;DHT22;44782;0.000;0.000;2022-08-24T00:47:28;25.10;56.40
58993;DHT22;44782;0.000;0.000;2022-08-24T00:52:18;25.10;56.40
58993;DHT22;44782;0.000;0.000;2022-08-24T00:54:39;25.10;56.40
58993;DHT22;44782;0.000;0.000;2022-08-24T00:56:59;25.10;56.40
58993;DHT22;44782;0.000;0.000;2022-08-24T00:59:24;25.10;56.50
58993;DHT22;44782;0.000;0.000;2022-08-24T01:01:40;25.10;56.40
58993;DHT22;44782;0.000;0.000;2022-08-24T01:03:58;25.10;56.40
58993;DHT22;44782;0.000;0.000;2022-08-24T01:06:14;25.10;56.40
58993;DHT22;44782;0.000;0.000;2022-08-24T01:08:30;25.10;56.30
58993;DHT22;44782;0.000;0.000;2022-08-24T01:10:52;25.10;56.30
58993;DHT22;44782;0.000;0.000;2022-08-24T01:13:10;25.10;56.70
58993;DHT22;44782;0.000;0.000;2022-08-24T01:15:33;25.00;56.20
58993;DHT22;44782;0.000;0.000;2022-08-24T01:17:49;25.10;56.30
58993;DHT22;44782;0.000;0.000;2022-08-24T01:20:24;25.00;56.10
58993;DHT22;44782;0.000;0.000;2022-08-24T01:25:15;25.00;56.10
58993;DHT22;44782;0.000;0.000;2022-08-24T01:27:31;25.00;56.20
58993;DHT22;44782;0.000;0.000;2022-08-24T01:29:49;25.00;56.20
58993;DHT22;44782;0.000;0.000;2022-08-24T01:32:05;25.00;56.10
58993;DHT22;44782;0.000;0.000;2022-08-24T01:34:21;25.00;56.10
58993;DHT22;44782;0.000;0.000;2022-08-24T01:36:48;25.00;56.10
58993;DHT22;44782;0.000;0.000;2022-08-24T01:39:31;25.00;56.10
58993;DHT22;44782;0.000;0.000;2022-08-24T01:41:48;25.00;56.00
58993;DHT22;44782;0.000;0.000;2022-08-24T01:44:04;25.00;56.10
58993;DHT22;44782;0.000;0.000;2022-08-24T01:46:20;25.00;56.20
58993;DHT22;44782;0.000;0.000;2022-08-24T01:48:36;25.00;56.20
58993;DHT22;44782;0.000;0.000;2022-08-24T01:50:51;25.00;56.10
58993;DHT22;44782;0.000;0.000;2022-08-24T01:53:08;25.00;56.10
58993;DHT22;44782;0.000;0.000;2022-08-24T01:55:23;25.00;56.10
58993;DHT22;44782;0.000;0.000;2022-08-24T01:57:39;25.00;56.10
58993;DHT22;44782;0.000;0.000;2022-08-24T01:59:55;25.00;56.10
58993;DHT22;44782;0.000;0.000;2022-08-24T02:02:15;25.00;56.10
58993;DHT22;44782;0.000;0.000;2022-08-24T02:04:33;25.00;56.10
58993;DHT22;44782;0.000;0.000;2022-08-24T02:06:49;25.00;56.10
58993;DHT22;44782;0.000;0.000;2022-08-24T02:09:05;25.00;56.10
58993;DHT22;44782;0.000;0.000;2022-08-24T02:11:21;24.90;56.10
58993;DHT22;44782;0.000;0.000;2022-08-24T02:13:38;24.90;56.00
58993;DHT22;44782;0.000;0.000;2022-08-24T02:15:54;24.90;56.10
58993;DHT22;44782;0.000;0.000;2022-08-24T02:18:10;24.90;56.10
58993;DHT22;44782;0.000;0.000;2022-08-24T02:20:27;24.90;56.80
58993;DHT22;44782;0.000;0.000;2022-08-24T02:22:43;24.90;56.10
58993;DHT22;44782;0.000;0.000;2022-08-24T02:24:59;24.90;56.20
58993;DHT22;44782;0.000;0.000;2022-08-24T02:27:14;24.90;56.20
58993;DHT22;44782;0.000;0.000;2022-08-24T02:29:30;24.90;56.10
58993;DHT22;44782;0.000;0.000;2022-08-24T02:31:46;24.90;56.10
58993;DHT22;44782;0.000;0.000;2022-08-24T02:34:02;24.90;56.10
58993;DHT22;44782;0.000;0.000;2022-08-24T02:36:18;24.90;56.20
58993;DHT22;44782;0.000;0.000;2022-08-24T02:38:34;24.90;56.10
58993;DHT22;44782;0.000;0.000;2022-08-24T02:40:50;24.90;56.20
58993;DHT22;44782;0.000;0.000;2022-08-24T02:43:06;24.90;56.20
58993;DHT22;44782;0.000;0.000;2022-08-24T02:45:22;24.90;56.20
58993;DHT22;44782;0.000;0.000;2022-08-24T02:47:38;24.90;56.20
58993;DHT22;44782;0.000;0.000;2022-08-24T02:49:53;24.90;56.20
58993;DHT22;44782;0.000;0.000;2022-08-24T02:52:09;24.90;56.20
58993;DHT22;44782;0.000;0.000;2022-08-24T02:54:25;24.90;56.20
58993;DHT22;44782;0.000;0.000;2022-08-24T02:56:40;24.90;56.20
58993;DHT22;44782;0.000;0.000;2022-08-24T02:58:57;24.90;56.20
58993;DHT22;44782;0.000;0.000;2022-08-24T03:01:13;24.80;56.20
58993;DHT22;44782;0.000;0.000;2022-08-24T03:03:29;24.80;56.20
58993;DHT22;44782;0.000;0.000;2022-08-24T03:05:45;24.80;56.30
58993;DHT22;44782;0.000;0.000;2022-08-24T03:08:00;24.80;56.30
58993;DHT22;44782;0.000;0.000;2022-08-24T03:10:16;24.80;56.30
58993;DHT22;44782;0.000;0.000;2022-08-24T03:12:32;24.80;56.30
58993;DHT22;44782;0.000;0.000;2022-08-24T03:14:49;24.80;56.30
58993;DHT22;44782;0.000;0.000;2022-08-24T03:17:04;24.80;56.20
58993;DHT22;44782;0.000;0.000;2022-08-24T03:19:20;24.80;56.30
58993;DHT22;44782;0.000;0.000;2022-08-24T03:21:36;24.80;56.30
58993;DHT22;44782;0.000;0.000;2022-08-24T03:23:52;24.80;56.30
58993;DHT22;44782;0.000;0.000;2022-08-24T03:26:08;24.80;56.20
58993;DHT22;44782;0.000;0.000;2022-08-24T03:28:24;24.80;56.30
58993;DHT22;44782;0.000;0.000;2022-08-24T03:30:40;24.80;56.20
58993;DHT22;44782;0.000;0.000;2022-08-24T03:32:58;24.80;56.20
58993;DHT22;44782;0.000;0.000;2022-08-24T03:35:15;24.80;56.20
58993;DHT22;44782;0.000;0.000;2022-08-24T03:37:31;24.80;56.20
58993;DHT22;44782;0.000;0.000;2022-08-24T03:39:47;24.80;56.30
58993;DHT22;44782;0.000;0.000;2022-08-24T03:42:04;24.80;56.30
58993;DHT22;44782;0.000;0.000;2022-08-24T03:44:20;24.80;56.30
58993;DHT22;44782;0.000;0.000;2022-08-24T03:46:36;24.80;56.30
58993;DHT22;44782;0.000;0.000;2022-08-24T03:48:54;24.80;56.40
58993;DHT22;44782;0.000;0.000;2022-08-24T03:51:15;24.70;56.30
58993;DHT22;44782;0.000;0.000;2022-08-24T03:53:31;24.80;56.40
58993;DHT22;44782;0.000;0.000;2022-08-24T03:55:46;24.80;56.50
58993;DHT22;44782;0.000;0.000;2022-08-24T03:58:02;24.70;56.30
58993;DHT22;44782;0.000;0.000;2022-08-24T04:00:18;24.70;56.30
58993;DHT22;44782;0.000;0.000;2022-08-24T04:02:34;24.70;56.30
58993;DHT22;44782;0.000;0.000;2022-08-24T04:04:49;24.70;56.30
58993;DHT22;44782;0.000;0.000;2022-08-24T04:07:05;24.70;56.30
58993;DHT22;44782;0.000;0.000;2022-08-24T04:09:21;24.70;56.30
58993;DHT22;44782;0.000;0.000;2022-08-24T04:11:36;24.70;56.40
58993;DHT22;44782;0.000;0.000;2022-08-24T04:13:54;24.70;56.30
58993;DHT22;44782;0.000;0.000;2022-08-24T04:16:17;24.70;56.30
58993;DHT22;44782;0.000;0.000;2022-08-24T04:18:33;24.70;56.30
58993;DHT22;44782;0.000;0.000;2022-08-24T04:20:49;24.70;56.40
58993;DHT22;44782;0.000;0.000;2022-08-24T04:23:06;24.70;56.40
58993;DHT22;44782;0.000;0.000;2022-08-24T04:25:22;24.70;56.40
58993;DHT22;44782;0.000;0.000;2022-08-24T04:27:40;24.70;56.40
58993;DHT22;44782;0.000;0.000;2022-08-24T04:29:55;24.70;56.50
58993;DHT22;44782;0.000;0.000;2022-08-24T04:32:11;24.70;56.50
58993;DHT22;44782;0.000;0.000;2022-08-24T04:34:29;24.70;56.50
58993;DHT22;44782;0.000;0.000;2022-08-24T04:36:45;24.70;56.50
58993;DHT22;44782;0.000;0.000;2022-08-24T04:39:01;24.70;56.50
58993;DHT22;44782;0.000;0.000;2022-08-24T04:41:18;24.70;56.50
58993;DHT22;44782;0.000;0.000;2022-08-24T04:43:36;24.70;56.50
58993;DHT22;44782;0.000;0.000;2022-08-24T04:45:52;24.70;56.50
58993;DHT22;44782;0.000;0.000;2022-08-24T04:48:09;24.70;56.40
58993;DHT22;44782;0.000;0.000;2022-08-24T04:50:24;24.70;56.40
58993;DHT22;44782;0.000;0.000;2022-08-24T04:52:40;24.60;56.40
58993;DHT22;44782;0.000;0.000;2022-08-24T04:54:56;24.70;56.40
58993;DHT22;44782;0.000;0.000;2022-08-24T04:57:11;24.60;56.30
58993;DHT22;44782;0.000;0.000;2022-08-24T04:59:28;24.70;56.40
58993;DHT22;44782;0.000;0.000;2022-08-24T05:01:44;24.60;56.40
58993;DHT22;44782;0.000;0.000;2022-08-24T05:04:00;24.60;56.30
58993;DHT22;44782;0.000;0.000;2022-08-24T05:06:17;24.60;56.30
58993;DHT22;44782;0.000;0.000;2022-08-24T05:08:33;24.60;56.30
58993;DHT22;44782;0.000;0.000;2022-08-24T05:10:49;24.60;56.30
58993;DHT22;44782;0.000;0.000;2022-08-24T05:13:05;24.60;56.30
58993;DHT22;44782;0.000;0.000;2022-08-24T05:15:21;24.60;56.20
58993;DHT22;44782;0.000;0.000;2022-08-24T05:17:38;24.60;56.20
58993;DHT22;44782;0.000;0.000;2022-08-24T05:19:56;24.60;56.20
58993;DHT22;44782;0.000;0.000;2022-08-24T05:22:12;24.60;56.20
58993;DHT22;44782;0.000;0.000;2022-08-24T05:24:28;24.60;56.20
58993;DHT22;44782;0.000;0.000;2022-08-24T05:26:44;24.60;56.20
58993;DHT22;44782;0.000;0.000;2022-08-24T05:29:01;24.60;56.20
58993;DHT22;44782;0.000;0.000;2022-08-24T05:31:20;24.60;56.20
58993;DHT22;44782;0.000;0.000;2022-08-24T05:33:36;24.60;56.30
58993;DHT22;44782;0.000;0.000;2022-08-24T05:35:52;24.60;56.30
58993;DHT22;44782;0.000;0.000;2022-08-24T05:38:07;24.60;56.30
58993;DHT22;44782;0.000;0.000;2022-08-24T05:40:24;24.60;56.30
58993;DHT22;44782;0.000;0.000;2022-08-24T05:42:40;24.60;56.40
58993;DHT22;44782;0.000;0.000;2022-08-24T05:44:55;24.50;56.60
58993;DHT22;44782;0.000;0.000;2022-08-24T05:47:11;24.60;56.80
58993;DHT22;44782;0.000;0.000;2022-08-24T05:49:27;24.50;56.80
58993;DHT22;44782;0.000;0.000;2022-08-24T05:51:43;24.60;57.00
58993;DHT22;44782;0.000;0.000;2022-08-24T05:53:58;24.50;57.00
58993;DHT22;44782;0.000;0.000;2022-08-24T05:56:16;24.50;57.70
58993;DHT22;44782;0.000;0.000;2022-08-24T05:58:33;24.50;57.10
58993;DHT22;44782;0.000;0.000;2022-08-24T06:00:48;24.50;57.20
58993;DHT22;44782;0.000;0.000;2022-08-24T06:03:05;24.50;57.30
58993;DHT22;44782;0.000;0.000;2022-08-24T06:05:20;24.50;57.30
58993;DHT22;44782;0.000;0.000;2022-08-24T06:07:36;24.50;57.40
58993;DHT22;44782;0.000;0.000;2022-08-24T06:09:51;24.50;57.40
58993;DHT22;44782;0.000;0.000;2022-08-24T06:12:09;24.60;57.60
58993;DHT22;44782;0.000;0.000;2022-08-24T06:14:26;24.50;57.50
58993;DHT22;44782;0.000;0.000;2022-08-24T06:16:44;24.50;57.60
58993;DHT22;44782;0.000;0.000;2022-08-24T06:19:00;24.60;57.70
58993;DHT22;44782;0.000;0.000;2022-08-24T06:21:19;24.60;57.70
58993;DHT22;44782;0.000;0.000;2022-08-24T06:23:35;24.60;57.70
58993;DHT22;44782;0.000;0.000;2022-08-24T06:25:52;24.60;57.80
58993;DHT22;44782;0.000;0.000;2022-08-24T06:28:28;24.60;57.80
58993;DHT22;44782;0.000;0.000;2022-08-24T06:30:44;24.60;57.60
58993;DHT22;44782;0.000;0.000;2022-08-24T06:33:01;24.50;57.50
58993;DHT22;44782;0.000;0.000;2022-08-24T06:35:17;24.60;57.50
58993;DHT22;44782;0.000;0.000;2022-08-24T06:37:32;24.60;57.50
58993;DHT22;44782;0.000;0.000;2022-08-24T06:39:48;24.60;57.50
58993;DHT22;44782;0.000;0.000;2022-08-24T06:42:04;24.60;57.50
58993;DHT22;44782;0.000;0.000;2022-08-24T06:44:20;24.60;57.70
58993;DHT22;44782;0.000;0.000;2022-08-24T06:46:36;24.60;57.70
58993;DHT22;44782;0.000;0.000;2022-08-24T06:48:52;24.60;57.80
58993;DHT22;44782;0.000;0.000;2022-08-24T06:51:11;24.60;57.90
58993;DHT22;44782;0.000;0.000;2022-08-24T06:53:26;24.60;57.90
58993;DHT22;44782;0.000;0.000;2022-08-24T06:58:04;24.70;58.00
58993;DHT22;44782;0.000;0.000;2022-08-24T07:00:20;24.70;58.70
58993;DHT22;44782;0.000;0.000;2022-08-24T07:02:36;24.70;58.10
58993;DHT22;44782;0.000;0.000;2022-08-24T07:04:51;24.70;58.00
58993;DHT22;44782;0.000;0.000;2022-08-24T07:07:07;24.70;58.00
58993;DHT22;44782;0.000;0.000;2022-08-24T07:09:23;24.70;57.90
58993;DHT22;44782;0.000;0.000;2022-08-24T07:11:41;24.80;58.00
58993;DHT22;44782;0.000;0.000;2022-08-24T07:13:57;24.80;58.00
58993;DHT22;44782;0.000;0.000;2022-08-24T07:16:14;24.80;57.90
58993;DHT22;44782;0.000;0.000;2022-08-24T07:18:30;24.80;57.90
58993;DHT22;44782;0.000;0.000;2022-08-24T07:20:46;24.80;57.90
58993;DHT22;44782;0.000;0.000;2022-08-24T07:23:04;24.80;57.90
58993;DHT22;44782;0.000;0.000;2022-08-24T07:25:20;24.80;57.90
58993;DHT22;44782;0.000;0.000;2022-08-24T07:27:36;24.80;57.90
58993;DHT22;44782;0.000;0.000;2022-08-24T07:29:54;24.90;57.90
58993;DHT22;44782;0.000;0.000;2022-08-24T07:32:09;24.90;57.90
58993;DHT22;44782;0.000;0.000;2022-08-24T07:34:25;24.90;57.90
58993;DHT22;44782;0.000;0.000;2022-08-24T07:36:41;24.90;57.90
58993;DHT22;44782;0.000;0.000;2022-08-24T07:38:57;24.90;57.90
58993;DHT22;44782;0.000;0.000;2022-08-24T07:41:12;24.90;57.80
58993;DHT22;44782;0.000;0.000;2022-08-24T07:43:28;24.90;57.80
58993;DHT22;44782;0.000;0.000;2022-08-24T07:45:44;24.90;58.40
58993;DHT22;44782;0.000;0.000;2022-08-24T07:48:00;24.90;57.70
58993;DHT22;44782;0.000;0.000;2022-08-24T07:50:17;24.90;57.70
58993;DHT22;44782;0.000;0.000;2022-08-24T07:52:33;24.90;57.70
58993;DHT22;44782;0.000;0.000;2022-08-24T07:54:48;24.90;57.80
58993;DHT22;44782;0.000;0.000;2022-08-24T07:57:04;25.00;57.80
58993;DHT22;44782;0.000;0.000;2022-08-24T07:59:20;25.00;57.80
58993;DHT22;44782;0.000;0.000;2022-08-24T08:01:37;25.00;57.80
58993;DHT22;44782;0.000;0.000;2022-08-24T08:03:53;25.00;57.70
58993;DHT22;44782;0.000;0.000;2022-08-24T08:06:09;25.00;57.70
58993;DHT22;44782;0.000;0.000;2022-08-24T08:08:26;25.00;57.60
58993;DHT22;44782;0.000;0.000;2022-08-24T08:10:41;25.00;57.60
58993;DHT22;44782;0.000;0.000;2022-08-24T08:12:57;25.00;57.50
58993;DHT22;44782;0.000;0.000;2022-08-24T08:15:13;25.00;57.50
58993;DHT22;44782;0.000;0.000;2022-08-24T08:17:28;25.00;57.40
58993;DHT22;44782;0.000;0.000;2022-08-24T08:19:44;25.00;57.40
58993;DHT22;44782;0.000;0.000;2022-08-24T08:22:00;25.00;57.40
58993;DHT22;44782;0.000;0.000;2022-08-24T08:24:37;25.00;57.30
58993;DHT22;44782;0.000;0.000;2022-08-24T08:26:53;25.00;57.30
58993;DHT22;44782;0.000;0.000;2022-08-24T08:29:09;25.00;57.30
58993;DHT22;44782;0.000;0.000;2022-08-24T08:31:27;25.00;57.30
58993;DHT22;44782;0.000;0.000;2022-08-24T08:33:42;25.10;57.40
58993;DHT22;44782;0.000;0.000;2022-08-24T08:36:10;25.00;57.30
58993;DHT22;44782;0.000;0.000;2022-08-24T08:38:27;25.00;57.30
58993;DHT22;44782;0.000;0.000;2022-08-24T08:49:02;25.10;57.70
58993;DHT22;44782;0.000;0.000;2022-08-24T08:56:36;25.10;57.50
58993;DHT22;44782;0.000;0.000;2022-08-24T09:06:54;25.10;57.30
58993;DHT22;44782;0.000;0.000;2022-08-24T09:09:23;25.10;57.20
58993;DHT22;44782;0.000;0.000;2022-08-24T09:12:01;25.10;57.20
58993;DHT22;44782;0.000;0.000;2022-08-24T09:22:23;25.10;56.90
58993;DHT22;44782;0.000;0.000;2022-08-24T09:30:32;25.20;56.90
58993;DHT22;44782;0.000;0.000;2022-08-24T10:02:14;25.20;56.60
58993;DHT22;44782;0.000;0.000;2022-08-24T10:07:25;25.20;56.50
58993;DHT22;44782;0.000;0.000;2022-08-24T10:15:18;25.20;56.50
58993;DHT22;44782;0.000;0.000;2022-08-24T10:25:57;25.30;56.30
58993;DHT22;44782;0.000;0.000;2022-08-24T10:33:21;25.20;56.30
58993;DHT22;44782;0.000;0.000;2022-08-24T10:44:20;25.20;56.20
58993;DHT22;44782;0.000;0.000;2022-08-24T10:46:59;25.20;56.40
58993;DHT22;44782;0.000;0.000;2022-08-24T10:54:39;25.20;56.10
58993;DHT22;44782;0.000;0.000;2022-08-24T10:59:49;25.20;56.00
58993;DHT22;44782;0.000;0.000;2022-08-24T11:02:33;25.20;56.10
58993;DHT22;44782;0.000;0.000;2022-08-24T11:04:57;25.20;55.90
58993;DHT22;44782;0.000;0.000;2022-08-24T11:09:58;25.20;56.20
58993;DHT22;44782;0.000;0.000;2022-08-24T11:12:20;25.30;56.00
58993;DHT22;44782;0.000;0.000;2022-08-24T11:14:37;25.20;56.10
58993;DHT22;44782;0.000;0.000;2022-08-24T11:17:15;25.20;56.10
58993;DHT22;44782;0.000;0.000;2022-08-24T11:19:34;25.30;56.10
58993;DHT22;44782;0.000;0.000;2022-08-24T11:21:52;25.20;56.10
58993;DHT22;44782;0.000;0.000;2022-08-24T11:24:30;25.20;56.00
58993;DHT22;44782;0.000;0.000;2022-08-24T11:27:00;25.30;55.80
58993;DHT22;44782;0.000;0.000;2022-08-24T11:29:18;25.20;55.90
58993;DHT22;44782;0.000;0.000;2022-08-24T11:31:39;25.20;56.00
58993;DHT22;44782;0.000;0.000;2022-08-24T11:34:04;25.20;55.90
58993;DHT22;44782;0.000;0.000;2022-08-24T11:36:26;25.20;55.90
58993;DHT22;44782;0.000;0.000;2022-08-24T11:38:42;25.20;55.90
58993;DHT22;44782;0.000;0.000;2022-08-24T11:41:12;25.20;55.90
58993;DHT22;44782;0.000;0.000;2022-08-24T11:46:34;25.20;55.70
58993;DHT22;44782;0.000;0.000;2022-08-24T11:57:18;25.20;55.70
58993;DHT22;44782;0.000;0.000;2022-08-24T12:02:45;25.20;55.60
58993;DHT22;44782;0.000;0.000;2022-08-24T12:12:56;25.20;55.70
58993;DHT22;44782;0.000;0.000;2022-08-24T12:18:51;25.20;55.70
58993;DHT22;44782;0.000;0.000;2022-08-24T12:21:12;25.20;55.60
58993;DHT22;44782;0.000;0.000;2022-08-24T12:23:36;25.20;55.80
58993;DHT22;44782;0.000;0.000;2022-08-24T12:25:59;25.20;55.60
58993;DHT22;44782;0.000;0.000;2022-08-24T12:28:25;25.20;55.60
58993;DHT22;44782;0.000;0.000;2022-08-24T12:30:42;25.20;55.60
58993;DHT22;44782;0.000;0.000;2022-08-24T12:33:02;25.20;55.70
58993;DHT22;44782;0.000;0.000;2022-08-24T12:37:44;25.30;55.50
58993;DHT22;44782;0.000;0.000;2022-08-24T12:42:50;25.30;55.40
58993;DHT22;44782;0.000;0.000;2022-08-24T12:45:10;25.30;55.50
58993;DHT22;44782;0.000;0.000;2022-08-24T12:47:27;25.20;55.50
58993;DHT22;44782;0.000;0.000;2022-08-24T12:49:51;25.20;55.50
58993;DHT22;44782;0.000;0.000;2022-08-24T13:00:14;25.30;55.30
58993;DHT22;44782;0.000;0.000;2022-08-24T13:02:36;25.30;55.40
58993;DHT22;44782;0.000;0.000;2022-08-24T13:17:40;25.30;55.10
58993;DHT22;44782;0.000;0.000;2022-08-24T13:22:36;25.30;55.20
58993;DHT22;44782;0.000;0.000;2022-08-24T13:25:21;25.30;55.40
58993;DHT22;44782;0.000;0.000;2022-08-24T13:30:03;25.30;55.50
58993;DHT22;44782;0.000;0.000;2022-08-24T13:32:31;25.30;55.50
58993;DHT22;44782;0.000;0.000;2022-08-24T13:34:50;25.30;55.30
58993;DHT22;44782;0.000;0.000;2022-08-24T13:37:15;25.30;55.50
58993;DHT22;44782;0.000;0.000;2022-08-24T13:42:10;25.40;55.40
58993;DHT22;44782;0.000;0.000;2022-08-24T13:50:11;25.40;55.30
58993;DHT22;44782;0.000;0.000;2022-08-24T13:52:53;25.40;55.40
58993;DHT22;44782;0.000;0.000;2022-08-24T13:57:44;25.40;55.30
58993;DHT22;44782;0.000;0.000;2022-08-24T14:02:38;25.40;55.40
58993;DHT22;44782;0.000;0.000;2022-08-24T14:05:12;25.40;55.30
58993;DHT22;44782;0.000;0.000;2022-08-24T14:08:14;25.40;55.30
58993;DHT22;44782;0.000;0.000;2022-08-24T14:16:08;25.40;55.40
58993;DHT22;44782;0.000;0.000;2022-08-24T14:21:59;25.40;55.30
58993;DHT22;44782;0.000;0.000;2022-08-24T14:24:39;25.40;55.40
58993;DHT22;44782;0.000;0.000;2022-08-24T14:27:05;25.40;55.30
58993;DHT22;44782;0.000;0.000;2022-08-24T14:29:27;25.40;55.40
58993;DHT22;44782;0.000;0.000;2022-08-24T14:34:21;25.50;55.40
58993;DHT22;44782;0.000;0.000;2022-08-24T14:42:17;25.50;55.40
58993;DHT22;44782;0.000;0.000;2022-08-24T14:47:32;25.50;55.30
58993;DHT22;44782;0.000;0.000;2022-08-24T14:50:08;25.50;55.20
58993;DHT22;44782;0.000;0.000;2022-08-24T15:04:49;25.60;55.10
58993;DHT22;44782;0.000;0.000;2022-08-24T15:09:42;25.60;55.00
58993;DHT22;44782;0.000;0.000;2022-08-24T15:12:14;25.60;55.20
58993;DHT22;44782;0.000;0.000;2022-08-24T15:14:41;25.60;55.10
58993;DHT22;44782;0.000;0.000;2022-08-24T15:17:06;25.60;55.10
58993;DHT22;44782;0.000;0.000;2022-08-24T15:19:30;25.60;55.00
58993;DHT22;44782;0.000;0.000;2022-08-24T15:29:23;25.70;55.00
58993;DHT22;44782;0.000;0.000;2022-08-24T15:31:39;25.70;55.10
58993;DHT22;44782;0.000;0.000;2022-08-24T15:34:00;25.70;55.10
58993;DHT22;44782;0.000;0.000;2022-08-24T15:36:17;25.70;55.00
58993;DHT22;44782;0.000;0.000;2022-08-24T15:38:36;25.70;55.00
58993;DHT22;44782;0.000;0.000;2022-08-24T15:43:21;25.70;54.90
58993;DHT22;44782;0.000;0.000;2022-08-24T15:45:42;25.70;55.00
58993;DHT22;44782;0.000;0.000;2022-08-24T15:48:00;25.70;54.90
58993;DHT22;44782;0.000;0.000;2022-08-24T15:50:21;25.70;55.00
58993;DHT22;44782;0.000;0.000;2022-08-24T15:52:48;25.80;55.00
58993;DHT22;44782;0.000;0.000;2022-08-24T15:55:06;25.80;54.90
58993;DHT22;44782;0.000;0.000;2022-08-24T15:57:42;25.80;55.00
58993;DHT22;44782;0.000;0.000;2022-08-24T16:00:17;25.80;54.80
58993;DHT22;44782;0.000;0.000;2022-08-24T16:05:35;25.80;55.00
58993;DHT22;44782;0.000;0.000;2022-08-24T16:10:13;25.80;55.00
58993;DHT22;44782;0.000;0.000;2022-08-24T16:12:42;25.80;55.00
58993;DHT22;44782;0.000;0.000;2022-08-24T16:15:14;25.80;55.10
58993;DHT22;44782;0.000;0.000;2022-08-24T16:17:50;25.90;54.90
58993;DHT22;44782;0.000;0.000;2022-08-24T16:20:31;25.80;55.00
58993;DHT22;44782;0.000;0.000;2022-08-24T16:23:12;25.80;54.90
58993;DHT22;44782;0.000;0.000;2022-08-24T16:25:35;25.90;55.00
58993;DHT22;44782;0.000;0.000;2022-08-24T16:30:42;25.90;55.10
58993;DHT22;44782;0.000;0.000;2022-08-24T16:32:58;25.90;55.00
58993;DHT22;44782;0.000;0.000;2022-08-24T16:35:17;25.90;55.10
58993;DHT22;44782;0.000;0.000;2022-08-24T16:37:34;25.90;55.00
58993;DHT22;44782;0.000;0.000;2022-08-24T16:39:50;25.90;55.00
58993;DHT22;44782;0.000;0.000;2022-08-24T16:42:10;25.90;55.00
58993;DHT22;44782;0.000;0.000;2022-08-24T16:44:30;25.90;55.00
58993;DHT22;44782;0.000;0.000;2022-08-24T16:46:48;25.90;54.90
58993;DHT22;44782;0.000;0.000;2022-08-24T16:49:04;25.90;54.90
58993;DHT22;44782;0.000;0.000;2022-08-24T16:51:20;25.90;54.90
58993;DHT22;44782;0.000;0.000;2022-08-24T16:53:38;25.90;54.90
58993;DHT22;44782;0.000;0.000;2022-08-24T16:55:54;25.90;54.80
58993;DHT22;44782;0.000;0.000;2022-08-24T16:58:10;25.90;54.90
58993;DHT22;44782;0.000;0.000;2022-08-24T17:00:26;26.00;54.90
58993;DHT22;44782;0.000;0.000;2022-08-24T17:02:43;25.90;54.80
58993;DHT22;44782;0.000;0.000;2022-08-24T17:04:59;26.00;54.90
58993;DHT22;44782;0.000;0.000;2022-08-24T17:07:19;26.00;55.00
58993;DHT22;44782;0.000;0.000;2022-08-24T17:09:40;26.00;54.90
58993;DHT22;44782;0.000;0.000;2022-08-24T17:11:57;26.00;54.90
58993;DHT22;44782;0.000;0.000;2022-08-24T17:14:13;26.00;55.00
58993;DHT22;44782;0.000;0.000;2022-08-24T17:16:29;26.00;55.20
58993;DHT22;44782;0.000;0.000;2022-08-24T17:18:45;26.00;55.10
58993;DHT22;44782;0.000;0.000;2022-08-24T17:21:00;26.00;55.10
58993;DHT22;44782;0.000;0.000;2022-08-24T17:23:16;26.00;55.20
58993;DHT22;44782;0.000;0.000;2022-08-24T17:25:32;26.00;55.30
58993;DHT22;44782;0.000;0.000;2022-08-24T17:27:48;26.00;55.40
58993;DHT22;44782;0.000;0.000;2022-08-24T17:30:04;26.10;55.40
58993;DHT22;44782;0.000;0.000;2022-08-24T17:32:20;26.10;55.60
58993;DHT22;44782;0.000;0.000;2022-08-24T17:34:36;26.10;55.80
58993;DHT22;44782;0.000;0.000;2022-08-24T17:36:54;26.10;55.80
58993;DHT22;44782;0.000;0.000;2022-08-24T17:39:11;26.10;55.70
58993;DHT22;44782;0.000;0.000;2022-08-24T17:41:27;26.10;55.70
58993;DHT22;44782;0.000;0.000;2022-08-24T17:43:43;26.10;55.60
58993;DHT22;44782;0.000;0.000;2022-08-24T17:45:59;26.10;55.50
58993;DHT22;44782;0.000;0.000;2022-08-24T17:48:21;26.20;55.50
58993;DHT22;44782;0.000;0.000;2022-08-24T17:50:38;26.20;55.40
58993;DHT22;44782;0.000;0.000;2022-08-24T17:52:53;26.20;55.50
58993;DHT22;44782;0.000;0.000;2022-08-24T17:55:10;26.20;55.50
58993;DHT22;44782;0.000;0.000;2022-08-24T17:57:27;26.20;56.00
58993;DHT22;44782;0.000;0.000;2022-08-24T17:59:43;26.20;56.00
58993;DHT22;44782;0.000;0.000;2022-08-24T18:02:03;26.20;55.80
58993;DHT22;44782;0.000;0.000;2022-08-24T18:04:20;26.20;55.70
58993;DHT22;44782;0.000;0.000;2022-08-24T18:06:36;26.20;55.60
58993;DHT22;44782;0.000;0.000;2022-08-24T18:08:53;26.20;55.90
58993;DHT22;44782;0.000;0.000;2022-08-24T18:11:11;26.20;55.90
58993;DHT22;44782;0.000;0.000;2022-08-24T18:13:26;26.20;55.80
58993;DHT22;44782;0.000;0.000;2022-08-24T18:15:42;26.20;55.70
58993;DHT22;44782;0.000;0.000;2022-08-24T18:17:57;26.20;55.70
58993;DHT22;44782;0.000;0.000;2022-08-24T18:20:15;26.20;55.60
58993;DHT22;44782;0.000;0.000;2022-08-24T18:22:35;26.20;55.60
58993;DHT22;44782;0.000;0.000;2022-08-24T18:24:50;26.20;55.70
58993;DHT22;44782;0.000;0.000;2022-08-24T18:27:14;26.20;55.60
58993;DHT22;44782;0.000;0.000;2022-08-24T18:29:30;26.20;55.60
58993;DHT22;44782;0.000;0.000;2022-08-24T18:31:47;26.20;55.60
58993;DHT22;44782;0.000;0.000;2022-08-24T18:34:03;26.20;55.70
58993;DHT22;44782;0.000;0.000;2022-08-24T18:36:19;26.20;55.60
58993;DHT22;44782;0.000;0.000;2022-08-24T18:38:34;26.20;55.70
58993;DHT22;44782;0.000;0.000;2022-08-24T18:40:50;26.20;55.60
58993;DHT22;44782;0.000;0.000;2022-08-24T18:43:06;26.20;55.60
58993;DHT22;44782;0.000;0.000;2022-08-24T18:45:24;26.20;56.10
58993;DHT22;44782;0.000;0.000;2022-08-24T18:47:40;26.30;56.30